KBQK/BQK METAR and TAF weather

Enter ICAO airport designator
Station Type Date Time Source
KBQK METAR 2020/01/21 21:35 UTC NOAA

KBQK 212135Z AUTO 34013G18KT 10SM CLR 06/M10 A3028 RMK AO2 T00631100


Station Type Date Time Source
KBQK Decoded METAR 2020/01/21 21:35 UTC NOAA

Brunswick / Glynco, GA, United States (KBQK) 31-15N 081-28W
Jan 21, 2020 - 04:35 PM EST / 2020.01.21 2135 UTC
Wind: from the NNW (340 degrees) at 15 MPH (13 KT) gusting to 21 MPH (18 KT):0
Visibility: 10 mile(s):0
Sky conditions: clear
Temperature: 43.3 F (6.3 C)
Dew Point: 14.0 F (-10.0 C)
Relative Humidity: 29%
Pressure (altimeter): 30.28 in. Hg (1025 hPa)
ob: KBQK 212135Z AUTO 34013G18KT 10SM CLR 06/M10 A3028 RMK AO2 T00631100
cycle: 21

Station Type Date Time Source
KBQK TAF UTC NOAA

Error!

Example: see airport list